Little Mackinaw, Illinois
Current Conditions -  °F | °C
As of 5:35 AM on Thursday 18 Dec 2014 (Local Time) from KAAA Reporting Station
Scattered Clouds Scattered Clouds  
Wind Chill: -5°   Ceiling: Unl
Heat Index: -5°   Visibility: 7mi
Dew Point: -6°   Wind: 0mph
Humidity: 91%   Direction: NA
Pressure: 30.3"   Gusts: NA
Location:  40.4411°N, 89.3259°W
Report Text: KAAA 181135Z AUTO 00000KT 7SM SCT120 M05/M06 A3030 RMK AO2 T10481060
Loading
Personal Weather Stations






























Interactive Weather Map New forecast layout! Learn more

10-Day Weather Forecast

Advertisements
Track Severe Weather on mobile